Lake Ozark, MO

7:08 PM CDT on August 21, 2014 (GMT -0500)
Lake of the Ozarks | Change Station
CLOSE
Current Station
Personal Weather Station
Location: Sunrise Beach, MO
Elevation: 668 ft
Nearby Weather Stations

Elev 668 ft 38.17 °N, 92.70 °W | Updated 13 minutes ago

Partly Cloudy
Partly Cloudy
92.7 °F
Feels Like 126 °F
N
0.0
Wind Variable Wind from NNW

Today
High -- | Low -- °F
--% Chance of Precip.
Yesterday
High -- | Low -- °F
Precip. -- in
6:30 AM 7:56 PM
Waning Crescent, 11% visible
Pressure 29.91 in
Visibility 10.0 miles
Clouds Few 7500 ft
Heat Index 126 °F
Dew Point 86 °F
Humidity 82%
Rainfall 0.00 in
Snow Depth Not available.
UV 0 out of 12
Pollen 10.60 out of 12
Air Quality Not available.
Flu Activity Not available.
METAR KAIZ 212355Z AUTO 19003KT 10SM FEW075 33/20 A2991 RMK AO1 10360 20330 403600210 57010

More Conditions Fewer Conditions

Pressure 29.91 in
Visibility 10.0 miles
Clouds Few 7500 ft
Heat Index 126 °F
Dew Point 86 °F
Humidity 82%
Rainfall 0.00 in
Snow Depth Not available.
UV 0 out of 12
Pollen 10.60 out of 12
Air Quality Not available.
Flu Activity Not available.
METAR KAIZ 212355Z AUTO 19003KT 10SM FEW075 33/20 A2991 RMK AO1 10360 20330 403600210 57010

More Conditions Fewer Conditions

10-Day Weather Forecast

Almanac

Astronomy

Aug. 21, 2014 Rise Set
Actual Time 6:30 AM CDT 7:56 PM CDT
Civil Twilight 6:03 AM CDT 8:23 PM CDT
Nautical Twilight 5:29 AM CDT 8:56 PM CDT
Astronomical Twilight 4:54 AM CDT 9:31 PM CDT
Moon 3:03 AM CDT (8/21) 5:24 PM CDT (8/21)
Length of Visible Light 14h 20m
Length of Day
13h 25m
Tomorrow will be 2m 15s shorter.
Waning Crescent, 11% of the Moon is Illuminated
Today
Waning Crescent
Aug 25
New
Sep 2
First Quarter
Sep 8
Full
Sep 15
Last Quarter

Today's Extremes

State Highs State Lows

Community

WunderPhotos

Upload Photos

1,746,059 photos uploaded!

Nearby

Snow Depth

Station Depth Elevation
No new snow has been reported.

Earthquake Activity

City Distance Mag. Time & Date
No recent earthquake activity has been reported nearby.
Minimum magnitude displayed is 2.5.

Coastal Water Temperatures

Place Temperature
No Stations Reporting

Nearby Weather Stations